Time;durP1;ratioP1;P1;durP2;ratioP2;P2;SDS_P1;SDS_P2;PMS_P1;PMS_P2;Temp;Humidity;BMP_temperature;BMP_pressure;BME280_temperature;BME280_humidity;BME280_pressure;Samples;Min_cycle;Max_cycle;Signal;HPM_P1;HPM_P2
2024/03/24 00:02:24;;;;;;;;;4.00;3.00;;;;;9.65;100.00;97787.66;6097029;28;96673;-56
2024/03/24 00:05:26;;;;;;;;;5.00;4.00;;;;;9.66;100.00;97790.09;6098087;28;96375;-56
2024/03/24 00:08:29;;;;;;;;;5.00;4.00;;;;;9.57;100.00;97807.72;6097663;28;96417;-56
2024/03/24 00:11:31;;;;;;;;;4.40;4.40;;;;;9.66;100.00;97800.06;6097311;28;96517;-56
2024/03/24 00:14:34;;;;;;;;;4.00;4.00;;;;;9.72;100.00;97793.72;6097121;28;96466;-56
2024/03/24 00:17:37;;;;;;;;;3.00;2.00;;;;;9.78;100.00;97790.03;6097025;28;96327;-56
2024/03/24 00:20:40;;;;;;;;;4.60;4.00;;;;;9.84;100.00;97784.50;6070289;28;96779;-55
2024/03/24 00:23:41;;;;;;;;;5.20;4.60;;;;;9.92;100.00;97770.63;6120323;28;98842;-55
2024/03/24 00:26:44;;;;;;;;;4.80;3.80;;;;;9.97;100.00;97761.81;6122124;28;96302;-55
2024/03/24 00:29:48;;;;;;;;;4.60;3.80;;;;;10.02;100.00;97755.72;6104948;28;96281;-55
2024/03/24 00:32:51;;;;;;;;;3.40;3.40;;;;;10.08;100.00;97742.06;6121448;28;96393;-55
2024/03/24 00:35:53;;;;;;;;;7.00;5.00;;;;;10.15;100.00;97712.28;6122451;28;96938;-55
2024/03/24 00:38:55;;;;;;;;;4.00;4.00;;;;;10.20;100.00;97709.69;6124456;28;96301;-55
2024/03/24 00:41:58;;;;;;;;;4.80;3.00;;;;;10.24;100.00;97671.25;6125134;28;96516;-55
2024/03/24 00:45:00;;;;;;;;;4.00;3.00;;;;;10.26;100.00;97669.09;6125613;28;96263;-55
2024/03/24 00:48:03;;;;;;;;;5.60;4.60;;;;;10.29;100.00;97654.34;6109693;28;99041;-55
2024/03/24 00:51:04;;;;;;;;;5.00;4.00;;;;;10.32;100.00;97651.13;6108181;28;96487;-56
2024/03/24 00:54:08;;;;;;;;;4.00;3.00;;;;;10.29;100.00;97674.00;6123100;28;96861;-55
2024/03/24 00:57:09;;;;;;;;;4.00;3.00;;;;;10.26;100.00;97671.78;6108776;28;98615;-56
2024/03/24 01:00:14;;;;;;;;;5.00;4.00;;;;;10.21;100.00;97654.78;6125290;28;96379;-55
2024/03/24 01:03:16;;;;;;;;;4.75;4.75;;;;;9.97;100.00;97611.84;6124897;28;96318;-55
2024/03/24 01:06:18;;;;;;;;;5.00;4.00;;;;;10.12;100.00;97646.25;6118149;28;96276;-55
2024/03/24 01:09:19;;;;;;;;;4.00;3.00;;;;;10.08;100.00;97655.06;6124816;28;96253;-55
2024/03/24 01:12:23;;;;;;;;;4.80;4.00;;;;;10.04;100.00;97646.69;6108840;28;98474;-55
2024/03/24 01:15:25;;;;;;;;;2.00;2.00;;;;;9.84;100.00;97606.03;6109322;28;96374;-55
2024/03/24 01:18:28;;;;;;;;;5.00;4.00;;;;;9.95;100.00;97640.94;6125263;28;97341;-55
2024/03/24 01:21:29;;;;;;;;;4.00;3.00;;;;;9.91;100.00;97652.44;6125262;28;96727;-55
2024/03/24 01:24:31;;;;;;;;;5.00;3.25;;;;;9.87;100.00;97662.88;6124941;28;96237;-55
2024/03/24 01:27:32;;;;;;;;;4.00;3.00;;;;;9.77;100.00;97670.81;6125162;28;96823;-55
2024/03/24 01:30:36;;;;;;;;;4.50;4.00;;;;;9.71;100.00;97677.16;6118059;28;96401;-55
2024/03/24 01:33:37;;;;;;;;;5.75;5.75;;;;;9.60;100.00;97680.75;6084850;28;96284;-56
2024/03/24 01:36:39;;;;;;;;;4.00;4.00;;;;;9.52;100.00;97681.16;6100292;28;96293;-56
2024/03/24 01:39:42;;;;;;;;;7.00;6.80;;;;;8.44;100.00;97533.59;6094510;28;96810;-56
2024/03/24 01:42:44;;;;;;;;;3.75;3.75;;;;;9.45;100.00;97685.88;6083695;28;98365;-56
2024/03/24 01:45:47;;;;;;;;;4.00;4.00;;;;;9.47;100.00;97668.44;6099587;28;96394;-56
2024/03/24 01:48:50;;;;;;;;;5.80;5.00;;;;;9.49;100.00;97665.50;6099771;28;96950;-56
2024/03/24 01:51:52;;;;;;;;;5.00;4.00;;;;;9.51;100.00;97674.16;6099481;28;96797;-56
2024/03/24 01:54:56;;;;;;;;;5.40;5.00;;;;;9.50;100.00;97676.03;6099539;28;96750;-56
2024/03/24 01:57:57;;;;;;;;;6.00;5.60;;;;;9.49;100.00;97652.88;6088961;28;96302;-56
2024/03/24 02:01:01;;;;;;;;;8.00;7.00;;;;;9.50;100.00;97675.19;6075335;28;98561;-56
2024/03/24 02:04:07;;;;;;;;;7.60;6.60;;;;;9.48;100.00;97678.13;6117799;23;96245;-56
2024/03/24 02:07:10;;;;;;;;;6.60;6.20;;;;;9.48;100.00;97677.34;6115815;28;96349;-56
2024/03/24 02:10:12;;;;;;;;;7.50;6.00;;;;;9.41;100.00;97690.94;6096274;28;96392;-56
2024/03/24 02:13:13;;;;;;;;;9.00;7.00;;;;;9.38;100.00;97693.31;6114554;28;96481;-56
2024/03/24 02:16:17;;;;;;;;;8.00;7.40;;;;;9.38;100.00;97691.41;6115620;28;96268;-56
2024/03/24 02:19:19;;;;;;;;;9.00;7.80;;;;;9.38;100.00;97679.84;6103569;28;98765;-56
2024/03/24 02:22:20;;;;;;;;;7.75;7.50;;;;;9.39;100.00;97684.16;6091166;28;98753;-56
2024/03/24 02:25:24;;;;;;;;;8.00;7.00;;;;;9.43;100.00;97679.94;6088848;28;97625;-56
2024/03/24 02:28:25;;;;;;;;;9.40;8.00;;;;;9.47;100.00;97673.84;6108221;28;96423;-56
2024/03/24 02:31:27;;;;;;;;;7.80;6.00;;;;;9.36;100.00;97665.81;6081668;28;96300;-56
2024/03/24 02:34:28;;;;;;;;;6.60;6.60;;;;;9.48;100.00;97685.41;6097617;28;96564;-56
2024/03/24 02:37:30;;;;;;;;;7.20;6.80;;;;;9.47;100.00;97681.91;6099822;28;96743;-56
2024/03/24 02:40:34;;;;;;;;;8.00;8.00;;;;;9.44;100.00;97670.78;6086132;28;96911;-56
2024/03/24 02:43:37;;;;;;;;;8.00;7.40;;;;;9.39;100.00;97671.53;6097977;28;98004;-54
2024/03/24 02:46:38;;;;;;;;;6.60;6.00;;;;;9.38;100.00;97667.19;6103848;28;96348;-54
2024/03/24 02:49:40;;;;;;;;;8.00;6.40;;;;;9.37;100.00;97657.53;6102023;28;96332;-54
2024/03/24 02:52:41;;;;;;;;;9.00;8.00;;;;;9.35;100.00;97639.97;6089700;28;96369;-53
2024/03/24 02:55:48;;;;;;;;;7.00;5.00;;;;;9.29;100.00;97636.38;6116594;28;96328;-54
2024/03/24 02:58:49;;;;;;;;;5.00;4.00;;;;;9.33;100.00;97653.69;6110017;28;96157;-54
2024/03/24 03:01:53;;;;;;;;;7.00;6.00;;;;;9.30;100.00;97662.22;6110685;28;96473;-53
2024/03/24 03:04:54;;;;;;;;;7.00;6.00;;;;;9.25;100.00;97662.13;6107307;28;96605;-53
2024/03/24 03:07:56;;;;;;;;;6.00;6.00;;;;;9.19;100.00;97673.84;6110265;28;96190;-54
2024/03/24 03:10:59;;;;;;;;;7.00;6.00;;;;;9.15;100.00;97683.47;6111977;28;96277;-53
2024/03/24 03:14:01;;;;;;;;;7.00;6.00;;;;;9.04;100.00;97677.09;6111018;28;96338;-53
2024/03/24 03:17:03;;;;;;;;;8.00;6.00;;;;;8.99;100.00;97677.00;6090587;28;96701;-54
2024/03/24 03:20:08;;;;;;;;;8.75;7.75;;;;;8.94;100.00;97668.06;6123614;28;96367;-53
2024/03/24 03:23:09;;;;;;;;;7.60;7.00;;;;;8.96;100.00;97674.81;6118988;28;96763;-54
2024/03/24 03:26:13;;;;;;;;;6.00;6.00;;;;;8.80;100.00;97643.31;6120587;28;96273;-54
2024/03/24 03:29:14;;;;;;;;;9.00;7.00;;;;;8.88;100.00;97656.38;6119598;28;96474;-53
2024/03/24 03:32:16;;;;;;;;;8.20;8.00;;;;;8.87;100.00;97653.94;6114375;28;96312;-53
2024/03/24 03:35:20;;;;;;;;;8.00;7.00;;;;;8.83;100.00;97660.84;6121754;28;96362;-53
2024/03/24 03:38:22;;;;;;;;;9.00;8.00;;;;;8.80;100.00;97646.00;6127316;28;96774;-53
2024/03/24 03:41:25;;;;;;;;;8.00;8.00;;;;;8.77;100.00;97635.75;6106295;28;96268;-53
2024/03/24 03:44:27;;;;;;;;;8.00;7.00;;;;;8.65;100.00;97598.16;6105725;28;96862;-53
2024/03/24 03:47:28;;;;;;;;;8.60;8.00;;;;;8.75;100.00;97626.31;6121332;28;96788;-53
2024/03/24 03:50:37;;;;;;;;;10.00;9.00;;;;;8.72;100.00;97627.59;6115436;28;96310;-53
2024/03/24 03:53:38;;;;;;;;;8.00;8.00;;;;;8.68;100.00;97627.25;6113784;28;96382;-53
2024/03/24 03:56:42;;;;;;;;;6.80;6.00;;;;;8.61;100.00;97617.69;6107125;28;96321;-54
2024/03/24 03:59:43;;;;;;;;;10.40;9.00;;;;;8.57;100.00;97628.13;6117310;28;96690;-54
2024/03/24 04:02:47;;;;;;;;;10.40;9.00;;;;;8.56;100.00;97631.03;6111583;28;96364;-53
2024/03/24 04:05:49;;;;;;;;;8.50;7.50;;;;;8.47;100.00;97641.34;6107124;28;96527;-53
2024/03/24 04:08:51;;;;;;;;;9.00;7.25;;;;;8.41;100.00;97630.72;6115472;28;96267;-53
2024/03/24 04:11:55;;;;;;;;;9.75;8.00;;;;;8.32;100.00;97618.75;6126341;28;96471;-54
2024/03/24 04:14:59;;;;;;;;;9.40;8.00;;;;;8.41;100.00;97638.78;6121175;28;96403;-54
2024/03/24 04:18:00;;;;;;;;;8.80;8.00;;;;;8.43;100.00;97636.69;6111158;28;96373;-53
2024/03/24 04:21:03;;;;;;;;;8.00;8.00;;;;;8.46;100.00;97631.66;6096296;28;96289;-54
2024/03/24 04:24:05;;;;;;;;;10.00;8.00;;;;;8.52;100.00;97629.88;6107518;28;96311;-55
2024/03/24 04:27:09;;;;;;;;;9.20;8.00;;;;;8.57;100.00;97621.94;6093666;28;99091;-54
2024/03/24 04:30:12;;;;;;;;;7.00;7.00;;;;;8.62;100.00;97614.78;6108462;28;96822;-53
2024/03/24 04:33:14;;;;;;;;;8.25;7.25;;;;;8.67;100.00;97622.13;6118127;28;96599;-54
2024/03/24 04:36:16;;;;;;;;;10.40;9.00;;;;;8.73;100.00;97625.72;6112267;28;96939;-53
2024/03/24 04:39:18;;;;;;;;;8.00;7.00;;;;;8.79;100.00;97622.09;6124656;28;96456;-53
2024/03/24 04:42:23;;;;;;;;;9.00;8.60;;;;;8.83;100.00;97637.47;6113060;28;96631;-53
2024/03/24 04:45:26;;;;;;;;;7.00;6.00;;;;;8.88;100.00;97637.56;6118810;28;96655;-53
2024/03/24 04:48:28;;;;;;;;;8.00;7.00;;;;;8.89;100.00;97641.91;6113525;28;96224;-54
2024/03/24 04:51:32;;;;;;;;;9.40;9.00;;;;;8.82;100.00;97633.16;6137046;28;96352;-53
2024/03/24 04:54:33;;;;;;;;;9.25;8.25;;;;;8.94;100.00;97647.34;6120530;28;96874;-53
2024/03/24 04:57:37;;;;;;;;;11.00;10.40;;;;;9.01;100.00;97644.50;6127416;28;96301;-54
2024/03/24 05:00:38;;;;;;;;;10.20;10.20;;;;;9.06;100.00;97656.19;6111129;28;96325;-54
2024/03/24 05:03:41;;;;;;;;;10.00;9.00;;;;;9.11;100.00;97656.25;6092073;28;96774;-55
2024/03/24 05:06:42;;;;;;;;;9.60;9.00;;;;;9.16;100.00;97658.22;6125561;28;97045;-55
2024/03/24 05:09:44;;;;;;;;;7.25;6.25;;;;;9.23;100.00;97650.00;6120988;28;96289;-55
2024/03/24 05:12:47;;;;;;;;;6.40;6.40;;;;;9.32;100.00;97656.63;6115562;28;99176;-56
2024/03/24 05:15:51;;;;;;;;;12.75;10.75;;;;;9.41;100.00;97650.59;6126813;28;96453;-55
2024/03/24 05:18:52;;;;;;;;;8.40;8.40;;;;;9.43;100.00;97639.59;6118780;28;96500;-56
2024/03/24 05:21:54;;;;;;;;;7.00;7.00;;;;;9.52;100.00;97643.50;6108831;28;99469;-55
2024/03/24 05:24:57;;;;;;;;;6.60;5.60;;;;;9.54;100.00;97642.19;6135250;28;96369;-55
2024/03/24 05:28:00;;;;;;;;;9.50;9.00;;;;;9.64;100.00;97648.78;6136130;28;96336;-55
2024/03/24 05:31:02;;;;;;;;;9.50;9.00;;;;;9.70;100.00;97635.16;6127490;28;96487;-55
2024/03/24 05:34:04;;;;;;;;;10.00;8.00;;;;;9.75;100.00;97635.25;6119854;28;96452;-55
2024/03/24 05:37:06;;;;;;;;;8.00;7.00;;;;;9.86;100.00;97638.91;6128613;28;96492;-55
2024/03/24 05:40:09;;;;;;;;;8.50;7.50;;;;;9.93;100.00;97634.97;6126202;28;97083;-55
2024/03/24 05:43:13;;;;;;;;;10.40;9.40;;;;;10.02;100.00;97635.34;6123282;28;96979;-55
2024/03/24 05:46:14;;;;;;;;;8.60;8.00;;;;;10.13;100.00;97629.03;6118748;28;96312;-55
2024/03/24 05:49:16;;;;;;;;;8.20;7.60;;;;;10.25;100.00;97637.03;6117386;28;96270;-55
2024/03/24 05:52:18;;;;;;;;;9.00;7.80;;;;;10.35;100.00;97634.47;6131730;28;96636;-55
2024/03/24 05:55:21;;;;;;;;;10.00;9.00;;;;;10.43;100.00;97628.66;6129402;28;96468;-55
2024/03/24 05:58:26;;;;;;;;;9.60;9.00;;;;;10.55;100.00;97628.53;6109693;28;96756;-55
2024/03/24 06:01:28;;;;;;;;;10.00;9.00;;;;;10.55;100.00;97601.56;6123872;28;96345;-55
2024/03/24 06:04:31;;;;;;;;;11.40;10.00;;;;;10.63;100.00;97604.63;6132792;28;97734;-55
2024/03/24 06:07:34;;;;;;;;;8.00;7.00;;;;;10.90;100.00;97620.00;6128352;28;96090;-55
2024/03/24 06:10:36;;;;;;;;;10.00;9.40;;;;;11.19;100.00;97629.47;6133516;28;97136;-55
2024/03/24 06:13:39;;;;;;;;;9.50;8.00;;;;;11.59;100.00;97618.97;6121586;28;96276;-55
2024/03/24 06:16:42;;;;;;;;;7.80;7.00;;;;;11.93;100.00;97624.91;6118580;28;96799;-55
2024/03/24 06:19:44;;;;;;;;;10.00;9.00;;;;;12.32;100.00;97636.19;6109494;28;97820;-55
2024/03/24 06:22:45;;;;;;;;;9.00;7.00;;;;;12.56;100.00;97634.69;6096671;28;96541;-55
2024/03/24 06:25:48;;;;;;;;;8.60;8.00;;;;;12.66;100.00;97633.91;6109491;28;96375;-55
2024/03/24 06:28:50;;;;;;;;;9.00;9.00;;;;;12.76;100.00;97636.63;6110999;28;96909;-55
2024/03/24 06:31:53;;;;;;;;;10.60;9.00;;;;;12.88;100.00;97631.00;6092059;28;98425;-55
2024/03/24 06:34:54;;;;;;;;;9.60;9.00;;;;;13.01;100.00;97636.72;6100427;28;98686;-55
2024/03/24 06:37:56;;;;;;;;;10.00;9.00;;;;;13.30;100.00;97639.75;6112087;28;97143;-55
2024/03/24 06:40:57;;;;;;;;;10.00;9.00;;;;;13.46;100.00;97627.06;6117674;28;96403;-56
2024/03/24 06:44:06;;;;;;;;;10.00;9.00;;;;;13.82;100.00;97631.38;6103084;28;96667;-56
2024/03/24 06:47:07;;;;;;;;;10.00;9.00;;;;;14.10;100.00;97634.56;6114432;28;97432;-55
2024/03/24 06:50:10;;;;;;;;;11.00;10.00;;;;;14.38;100.00;97617.72;6102603;28;96507;-56
2024/03/24 06:53:13;;;;;;;;;11.20;9.20;;;;;14.91;100.00;97637.00;6112721;28;96814;-55
2024/03/24 06:56:15;;;;;;;;;10.80;10.00;;;;;14.90;100.00;97638.09;6114173;28;97480;-55
2024/03/24 06:59:18;;;;;;;;;8.40;8.00;;;;;14.79;100.00;97642.75;6113118;28;96690;-55
2024/03/24 07:02:20;;;;;;;;;9.20;9.20;;;;;14.53;100.00;97650.19;6108371;28;96365;-55
2024/03/24 07:05:21;;;;;;;;;14.40;12.00;;;;;14.24;100.00;97654.59;6105420;28;96303;-55
2024/03/24 07:08:23;;;;;;;;;12.20;10.00;;;;;13.95;100.00;97658.97;6102657;28;97181;-55
2024/03/24 07:11:24;;;;;;;;;12.00;11.00;;;;;13.59;100.00;97660.88;6115510;28;96739;-55
2024/03/24 07:14:28;;;;;;;;;13.00;11.00;;;;;13.33;100.00;97660.06;6110479;28;96531;-55
2024/03/24 07:17:29;;;;;;;;;9.00;9.00;;;;;13.08;100.00;97668.94;6113967;28;96611;-55
2024/03/24 07:20:31;;;;;;;;;11.00;10.00;;;;;12.74;100.00;97679.38;6108701;28;96576;-55
2024/03/24 07:23:33;;;;;;;;;11.00;11.00;;;;;12.11;100.00;97675.81;6112595;28;96292;-54
2024/03/24 07:26:35;;;;;;;;;9.40;9.00;;;;;11.80;100.00;97676.69;6118128;28;96283;-54
2024/03/24 07:29:38;;;;;;;;;11.40;10.00;;;;;11.49;100.00;97674.75;6110895;28;96272;-55
2024/03/24 07:32:40;;;;;;;;;11.00;11.00;;;;;11.77;100.00;97671.81;6124038;28;96380;-54
2024/03/24 07:35:42;;;;;;;;;10.75;9.75;;;;;12.04;100.00;97683.34;6114620;28;96385;-54
2024/03/24 07:38:44;;;;;;;;;11.00;11.00;;;;;12.08;100.00;97670.09;6112546;28;97160;-54
2024/03/24 07:41:46;;;;;;;;;12.40;12.40;;;;;12.21;100.00;97664.25;6120507;28;96568;-54
2024/03/24 07:44:49;;;;;;;;;14.20;12.80;;;;;12.43;100.00;97666.78;6131632;28;97014;-54
2024/03/24 07:47:54;;;;;;;;;13.25;13.25;;;;;12.96;100.00;97663.75;6111281;28;96382;-54
2024/03/24 07:50:57;;;;;;;;;14.00;13.00;;;;;13.87;100.00;97671.19;6115522;28;96547;-55
2024/03/24 07:53:58;;;;;;;;;15.60;12.60;;;;;14.72;100.00;97664.75;6109400;28;96943;-54
2024/03/24 07:57:01;;;;;;;;;13.00;12.00;;;;;14.60;100.00;97658.03;6111209;28;96981;-54
2024/03/24 08:00:06;;;;;;;;;16.40;14.40;;;;;14.30;100.00;97676.00;6114889;28;96630;-55
2024/03/24 08:03:14;;;;;;;;;15.00;15.00;;;;;13.88;100.00;97661.97;6117109;28;96342;-54
2024/03/24 08:06:16;;;;;;;;;16.00;15.00;;;;;13.69;100.00;97659.00;6112852;28;96670;-54
2024/03/24 08:09:18;;;;;;;;;15.50;14.00;;;;;14.07;100.00;97657.63;6104205;28;96493;-54
2024/03/24 08:12:20;;;;;;;;;16.40;14.00;;;;;14.54;100.00;97665.38;6113828;28;96417;-54
2024/03/24 08:15:24;;;;;;;;;19.00;16.00;;;;;15.41;100.00;97666.53;6122698;28;96387;-54
2024/03/24 08:18:25;;;;;;;;;14.00;13.00;;;;;15.22;100.00;97665.59;6111120;28;96356;-55
2024/03/24 08:21:27;;;;;;;;;13.20;13.20;;;;;14.63;100.00;97663.72;6114670;28;96450;-54
2024/03/24 08:24:29;;;;;;;;;16.00;14.00;;;;;13.91;100.00;97677.69;6107617;28;96391;-54
2024/03/24 08:27:31;;;;;;;;;14.00;13.00;;;;;13.37;100.00;97680.94;6115076;28;96345;-54
2024/03/24 08:30:33;;;;;;;;;12.00;11.00;;;;;13.00;100.00;97686.47;6110763;28;96261;-54
2024/03/24 08:33:35;;;;;;;;;11.80;11.20;;;;;12.63;100.00;97693.94;6116291;28;96511;-54
2024/03/24 08:36:37;;;;;;;;;14.60;13.00;;;;;12.31;100.00;97696.75;6113370;28;97385;-54
2024/03/24 08:39:39;;;;;;;;;14.00;12.40;;;;;11.99;100.00;97683.28;6109724;28;96815;-55
2024/03/24 08:42:40;;;;;;;;;12.75;12.00;;;;;11.87;100.00;97679.16;6117160;28;96633;-54
2024/03/24 08:45:44;;;;;;;;;10.60;10.40;;;;;11.69;100.00;97685.72;6118586;28;96960;-55
2024/03/24 08:48:48;;;;;;;;;13.60;11.60;;;;;11.44;100.00;97694.44;6119974;28;96614;-54
2024/03/24 08:51:51;;;;;;;;;12.00;12.00;;;;;11.40;100.00;97695.19;6117073;28;96404;-54
2024/03/24 08:54:53;;;;;;;;;12.00;11.00;;;;;11.59;100.00;97689.16;6114651;28;96909;-54
2024/03/24 08:57:55;;;;;;;;;13.00;11.40;;;;;11.82;100.00;97684.53;6113665;28;96449;-54
2024/03/24 09:00:57;;;;;;;;;13.00;12.00;;;;;12.16;100.00;97683.16;6085490;28;96319;-54
2024/03/24 09:04:00;;;;;;;;;14.00;13.20;;;;;12.68;100.00;97680.44;6114881;28;96386;-54
2024/03/24 09:07:01;;;;;;;;;15.75;13.75;;;;;13.40;100.00;97672.25;6118875;28;96143;-55
2024/03/24 09:10:04;;;;;;;;;15.00;13.00;;;;;14.03;100.00;97680.09;6117486;28;97792;-54
2024/03/24 09:13:06;;;;;;;;;14.00;13.60;;;;;14.41;100.00;97670.59;6117830;28;96634;-53
2024/03/24 09:16:08;;;;;;;;;15.00;15.00;;;;;14.70;100.00;97674.28;6114308;28;96433;-54
2024/03/24 09:19:11;;;;;;;;;12.00;11.00;;;;;15.24;100.00;97666.13;6117619;28;96598;-54
2024/03/24 09:22:12;;;;;;;;;14.20;14.20;;;;;15.41;100.00;97679.31;6110042;28;96945;-54
2024/03/24 09:25:14;;;;;;;;;13.00;13.00;;;;;15.17;100.00;97685.44;6120637;28;96618;-54
2024/03/24 09:28:17;;;;;;;;;12.60;11.60;;;;;14.64;100.00;97695.19;6095523;28;98407;-54
2024/03/24 09:31:19;;;;;;;;;11.00;10.00;;;;;14.05;100.00;97688.78;6118166;28;96577;-54
2024/03/24 09:34:22;;;;;;;;;12.50;11.50;;;;;13.54;100.00;97698.78;6109099;28;96921;-54
2024/03/24 09:37:25;;;;;;;;;13.00;11.40;;;;;12.91;100.00;97711.59;6113962;28;96376;-54
2024/03/24 09:40:26;;;;;;;;;8.00;7.00;;;;;12.26;100.00;97717.53;6105532;28;96409;-54
2024/03/24 09:43:28;;;;;;;;;7.60;7.40;;;;;11.85;100.00;97716.41;6098582;28;96836;-54
2024/03/24 09:46:31;;;;;;;;;6.00;5.00;;;;;11.50;100.00;97712.28;6113110;28;96755;-53
2024/03/24 09:49:36;;;;;;;;;7.00;6.00;;;;;11.28;100.00;97715.06;6113612;28;96399;-54
2024/03/24 09:52:43;;;;;;;;;8.00;7.00;;;;;10.94;100.00;97718.19;6107254;28;96732;-54
2024/03/24 09:55:45;;;;;;;;;10.60;10.00;;;;;10.66;100.00;97711.09;6126412;28;96651;-54
2024/03/24 09:58:48;;;;;;;;;14.20;12.00;;;;;10.52;100.00;97709.84;6110975;28;96512;-54
2024/03/24 10:01:51;;;;;;;;;9.00;7.40;;;;;10.35;100.00;97709.91;6110699;28;96545;-55
2024/03/24 10:04:55;;;;;;;;;7.60;7.00;;;;;10.25;100.00;97713.28;6119656;28;96381;-53
2024/03/24 10:08:00;;;;;;;;;5.25;5.00;;;;;10.35;100.00;97694.56;6112757;28;96286;-56
2024/03/24 10:11:23;;;;;;;;;8.75;8.00;;;;;10.52;100.00;97670.25;6104628;28;96827;-55
2024/03/24 10:14:26;;;;;;;;;9.25;8.00;;;;;10.98;100.00;97677.00;6114866;28;96514;-54
2024/03/24 10:17:29;;;;;;;;;3.20;3.20;;;;;11.28;100.00;97679.19;6105491;28;96854;-55
2024/03/24 10:20:32;;;;;;;;;5.00;5.00;;;;;11.53;100.00;97679.38;6109983;28;96414;-54
2024/03/24 10:23:36;;;;;;;;;3.00;3.00;;;;;11.90;100.00;97690.25;6113597;28;96926;-54
2024/03/24 10:26:37;;;;;;;;;3.75;3.00;;;;;13.19;100.00;97667.09;6122084;28;96293;-54
2024/03/24 10:29:40;;;;;;;;;5.00;4.00;;;;;15.73;100.00;97660.66;6118849;28;97903;-54
2024/03/24 10:32:42;;;;;;;;;3.00;3.00;;;;;17.96;100.00;97680.47;6105104;28;96809;-54
2024/03/24 10:35:46;;;;;;;;;5.00;5.00;;;;;20.28;92.28;97671.94;6102086;28;97067;-57
2024/03/24 10:38:47;;;;;;;;;4.60;3.60;;;;;22.90;79.96;97675.03;6108839;28;96843;-57
2024/03/24 10:41:54;;;;;;;;;3.40;3.40;;;;;24.07;67.84;97663.00;6088688;28;98504;-57
2024/03/24 10:44:58;;;;;;;;;3.00;3.00;;;;;25.15;61.30;97655.28;6109488;28;96274;-57
2024/03/24 10:48:03;;;;;;;;;3.80;3.00;;;;;24.74;59.81;97659.84;6105415;28;97348;-57
2024/03/24 10:51:07;;;;;;;;;2.00;2.00;;;;;25.76;57.49;97653.19;6100445;28;97605;-57
2024/03/24 10:54:09;;;;;;;;;3.00;3.00;;;;;28.68;53.74;97645.81;6118176;28;96395;-57
2024/03/24 10:57:14;;;;;;;;;2.00;2.00;;;;;31.48;39.91;97641.63;6121836;28;96305;-57
2024/03/24 11:00:16;;;;;;;;;2.50;2.50;;;;;33.90;34.87;97637.97;6121552;28;96192;-57
2024/03/24 11:03:20;;;;;;;;;3.20;3.00;;;;;35.89;33.02;97628.81;6114779;28;96389;-58
2024/03/24 11:06:22;;;;;;;;;6.00;4.00;;;;;37.47;31.13;97621.22;6128706;28;96656;-58
2024/03/24 11:09:24;;;;;;;;;4.60;4.60;;;;;38.24;28.27;97632.94;6121594;28;96905;-57
2024/03/24 11:12:26;;;;;;;;;3.60;3.60;;;;;37.85;29.14;97605.59;6122801;28;96872;-58
2024/03/24 11:15:29;;;;;;;;;5.00;4.20;;;;;35.58;29.45;97608.31;6121346;28;96576;-57
2024/03/24 11:18:31;;;;;;;;;5.00;4.00;;;;;34.11;30.57;97607.09;6122355;28;96490;-57
2024/03/24 11:21:39;;;;;;;;;4.60;4.20;;;;;31.54;32.86;97601.06;6127532;28;96743;-57
2024/03/24 11:24:40;;;;;;;;;6.60;6.00;;;;;29.38;37.35;97600.94;6138374;28;96936;-57
2024/03/24 11:27:43;;;;;;;;;6.00;5.60;;;;;27.30;41.30;97595.97;6117413;28;96726;-56
2024/03/24 11:30:45;;;;;;;;;5.00;5.00;;;;;25.40;46.76;97596.16;6120247;28;97824;-57
2024/03/24 11:34:02;;;;;;;;;5.00;4.40;;;;;23.65;52.00;97599.00;6128233;28;96628;-56
2024/03/24 11:37:03;;;;;;;;;5.40;5.40;;;;;23.02;54.61;97597.34;6120865;28;96866;-56
2024/03/24 11:40:11;;;;;;;;;5.40;5.40;;;;;23.80;51.49;97592.03;6135273;28;96270;-57
2024/03/24 11:43:12;;;;;;;;;6.40;5.40;;;;;24.95;50.69;97588.88;6134776;28;96232;-57
2024/03/24 11:46:15;;;;;;;;;7.00;7.00;;;;;23.91;51.75;97620.72;6129182;28;96313;-56
2024/03/24 11:49:18;;;;;;;;;3.00;3.00;;;;;21.31;62.00;97662.50;6135257;28;96168;-57
2024/03/24 11:52:20;;;;;;;;;2.00;2.00;;;;;18.75;77.81;97651.19;6131752;28;96344;-57
2024/03/24 11:55:25;;;;;;;;;2.00;2.00;;;;;16.76;89.73;97662.06;6130344;28;96386;-56
2024/03/24 11:58:27;;;;;;;;;1.00;1.00;;;;;15.03;100.00;97643.72;6131865;28;96394;-56
2024/03/24 12:01:29;;;;;;;;;4.00;4.00;;;;;14.41;100.00;97621.78;6132646;28;96566;-56
2024/03/24 12:04:32;;;;;;;;;2.00;2.00;;;;;13.75;100.00;97608.34;6099287;28;96518;-57
2024/03/24 12:07:36;;;;;;;;;2.00;2.00;;;;;13.67;100.00;97628.69;6092113;28;97083;-57
2024/03/24 12:10:37;;;;;;;;;3.00;3.00;;;;;13.69;100.00;97642.75;6094008;28;98368;-57
2024/03/24 12:13:40;;;;;;;;;2.00;1.00;;;;;13.93;100.00;97637.56;6102065;28;96854;-57
2024/03/24 12:16:41;;;;;;;;;3.00;2.00;;;;;14.70;100.00;97626.25;6089726;28;98387;-57
2024/03/24 12:19:45;;;;;;;;;2.00;2.00;;;;;14.87;100.00;97628.59;6103756;28;97061;-57
2024/03/24 12:22:46;;;;;;;;;3.25;3.00;;;;;14.85;100.00;97632.69;6106333;28;98490;-57
2024/03/24 12:25:49;;;;;;;;;4.00;4.00;;;;;14.62;100.00;97610.56;6092528;28;97861;-57
2024/03/24 12:28:51;;;;;;;;;4.00;2.80;;;;;14.63;100.00;97625.75;6105471;28;96360;-57
2024/03/24 12:31:53;;;;;;;;;3.00;2.00;;;;;14.30;100.00;97619.06;6116033;28;96719;-57
2024/03/24 12:34:59;;;;;;;;;3.00;2.75;;;;;14.48;100.00;97617.66;6111494;28;96622;-57
2024/03/24 12:38:01;;;;;;;;;3.00;3.00;;;;;14.36;100.00;97603.63;6111481;28;96800;-56
2024/03/24 12:41:03;;;;;;;;;3.00;3.00;;;;;14.42;100.00;97598.97;6108588;28;96506;-57
2024/03/24 12:44:05;;;;;;;;;3.00;2.25;;;;;15.01;100.00;97591.59;6104514;28;96937;-57
2024/03/24 12:47:08;;;;;;;;;2.20;2.20;;;;;15.68;100.00;97594.66;6109405;28;96890;-57
2024/03/24 12:50:28;;;;;;;;;3.00;3.00;;;;;16.24;100.00;97581.28;6108514;28;96626;-57
2024/03/24 12:53:42;;;;;;;;;3.00;2.75;;;;;16.65;100.00;97581.63;6108028;28;96667;-57
2024/03/24 12:56:45;;;;;;;;;4.00;3.00;;;;;16.85;98.82;97581.38;6107246;28;96562;-57
2024/03/24 12:59:54;;;;;;;;;3.60;3.00;;;;;16.93;96.23;97569.81;6107283;28;96688;-57
2024/03/24 13:03:00;;;;;;;;;3.40;3.00;;;;;16.97;99.17;97562.66;6086773;28;97277;-57
2024/03/24 13:06:09;;;;;;;;;4.00;4.00;;;;;17.04;93.25;97565.03;6108500;28;97733;-57
2024/03/24 13:09:13;;;;;;;;;2.80;2.00;;;;;17.10;95.31;97555.69;6099825;28;96701;-57
2024/03/24 13:12:15;;;;;;;;;3.00;3.00;;;;;17.04;89.67;97559.59;6111162;28;96410;-55
2024/03/24 13:15:17;;;;;;;;;5.00;3.60;;;;;17.08;86.92;97550.53;6124765;28;97700;-55
2024/03/24 13:18:25;;;;;;;;;4.00;4.00;;;;;17.28;86.58;97549.41;6125631;28;97280;-55
2024/03/24 13:21:35;;;;;;;;;3.00;3.00;;;;;17.41;80.72;97537.72;6123760;28;96744;-56
2024/03/24 13:24:44;;;;;;;;;3.00;3.00;;;;;17.53;78.43;97531.81;6127829;28;96318;-55
2024/03/24 13:27:49;;;;;;;;;4.00;4.00;;;;;17.65;79.15;97532.16;6102225;28;96724;-55
2024/03/24 13:30:51;;;;;;;;;4.80;4.80;;;;;17.59;75.20;97533.38;6128376;28;96426;-55
2024/03/24 13:33:54;;;;;;;;;4.40;4.40;;;;;17.63;75.22;97523.50;6135549;28;96219;-55
2024/03/24 13:37:04;;;;;;;;;4.50;4.00;;;;;17.59;78.28;97522.47;6126847;28;96328;-55
2024/03/24 13:40:14;;;;;;;;;3.00;3.00;;;;;17.63;78.08;97521.59;6129788;28;98439;-55
2024/03/24 13:43:28;;;;;;;;;5.60;4.00;;;;;17.58;77.29;97531.72;6125735;28;97067;-55
2024/03/24 13:46:34;;;;;;;;;4.00;3.50;;;;;17.54;77.73;97531.53;6130373;28;96597;-55
2024/03/24 13:49:37;;;;;;;;;4.00;3.60;;;;;17.59;79.28;97522.47;6141017;28;96317;-55
2024/03/24 13:52:42;;;;;;;;;5.00;5.00;;;;;17.49;78.11;97514.47;6125356;28;97147;-56
2024/03/24 13:55:44;;;;;;;;;7.00;6.00;;;;;17.46;79.02;97515.03;6131529;28;96306;-56
2024/03/24 13:58:45;;;;;;;;;4.00;4.00;;;;;17.39;79.87;97504.53;6127844;28;96433;-56
2024/03/24 14:01:47;;;;;;;;;7.40;6.40;;;;;17.47;80.21;97509.28;6129612;28;96608;-56
2024/03/24 14:04:49;;;;;;;;;7.00;6.40;;;;;17.60;80.84;97505.00;6132938;28;96731;-55
2024/03/24 14:07:52;;;;;;;;;5.00;5.00;;;;;17.55;77.83;97499.59;6133660;28;97909;-55
2024/03/24 14:10:54;;;;;;;;;5.00;4.00;;;;;17.47;78.35;97475.78;6127534;28;96288;-56
2024/03/24 14:14:10;;;;;;;;;7.00;6.00;;;;;17.56;80.51;97482.16;6122988;28;96899;-55